createdAt,value
2022-09-05T00:00:01.429Z,99982.86
2022-09-05T00:03:06.282Z,99982.66
2022-09-05T00:06:07.105Z,99987.24
2022-09-05T00:09:13.546Z,99983.66
2022-09-05T00:12:03.339Z,99983.05
2022-09-05T00:15:16.110Z,99979.45
2022-09-05T00:22:52.701Z,99973.27
2022-09-05T00:24:27.147Z,99968.91
2022-09-05T00:25:31.303Z,99970.35
2022-09-05T00:28:26.204Z,99967.96
2022-09-05T00:31:54.250Z,99967.10
2022-09-05T00:34:57.066Z,99962.80
2022-09-05T00:37:49.805Z,99966.20
2022-09-05T00:40:45.125Z,99959.67
2022-09-05T00:43:39.514Z,99959.59
2022-09-05T00:46:31.992Z,99960.97
2022-09-05T00:49:55.111Z,99960.14
2022-09-05T00:53:07.478Z,99954.55
2022-09-05T00:55:53.577Z,99956.11
2022-09-05T00:59:08.675Z,99957.53
2022-09-05T01:02:04.293Z,99957.72
2022-09-05T01:05:01.467Z,99958.66
2022-09-05T01:08:12.305Z,99955.27
2022-09-05T01:11:19.104Z,99952.96
2022-09-05T01:14:17.462Z,99954.27
2022-09-05T01:17:22.416Z,99955.04
2022-09-05T01:20:43.812Z,99954.98
2022-09-05T01:23:29.678Z,99958.22
2022-09-05T01:26:34.297Z,99958.58
2022-09-05T01:29:20.166Z,99961.61
2022-09-05T01:32:24.127Z,99964.14
2022-09-05T01:35:28.345Z,99971.52
2022-09-05T01:38:57.996Z,99966.03
2022-09-05T01:42:00.649Z,99977.41
2022-09-05T01:45:06.762Z,99976.21
2022-09-05T01:48:13.630Z,99975.52
2022-09-05T01:51:08.050Z,99979.34
2022-09-05T01:54:48.578Z,99976.44
2022-09-05T01:57:55.880Z,99973.70
2022-09-05T02:00:55.645Z,99973.23
2022-09-05T02:04:07.569Z,99974.96
2022-09-05T02:06:53.384Z,99969.89
2022-09-05T02:10:20.296Z,99971.04
2022-09-05T02:13:33.811Z,99973.32
2022-09-05T02:16:43.478Z,99970.70
2022-09-05T02:19:31.880Z,99973.32
2022-09-05T02:22:40.350Z,99971.79
2022-09-05T02:26:02.450Z,99974.34
2022-09-05T02:29:01.519Z,99977.70
2022-09-05T02:31:53.274Z,99980.19
2022-09-05T02:34:51.218Z,99976.16
2022-09-05T02:38:56.765Z,99980.08
2022-09-05T02:45:13.547Z,99979.86
2022-09-05T02:45:20.265Z,99984.64
2022-09-05T02:48:15.647Z,99985.79
2022-09-05T02:57:22.970Z,99982.52
2022-09-05T02:57:32.900Z,99985.42
2022-09-05T02:58:08.985Z,99988.30
2022-09-05T03:01:23.981Z,99989.89
2022-09-05T03:04:33.271Z,99981.41
2022-09-05T03:07:33.683Z,99983.83
2022-09-05T03:11:01.129Z,99984.35
2022-09-05T03:13:59.355Z,99989.92
2022-09-05T03:17:09.976Z,99994.67
2022-09-05T03:20:08.121Z,99995.46
2022-09-05T03:23:33.213Z,99996.71
2022-09-05T03:26:57.322Z,99993.91
2022-09-05T03:29:50.013Z,99995.69
2022-09-05T03:33:06.703Z,99994.48
2022-09-05T03:36:11.460Z,99997.15
2022-09-05T03:39:19.378Z,99998.21
2022-09-05T03:42:32.294Z,100004.63
2022-09-05T03:45:56.729Z,100014.95
2022-09-05T03:50:09.496Z,100016.77
2022-09-05T03:57:08.813Z,100021.14
2022-09-05T03:57:22.451Z,100019.58
2022-09-05T03:59:47.616Z,100022.79
2022-09-05T04:07:23.565Z,100034.52
2022-09-05T04:08:23.746Z,100035.24
2022-09-05T04:09:48.920Z,100037.36
2022-09-05T04:12:57.218Z,100036.68
2022-09-05T04:15:43.220Z,100038.70
2022-09-05T04:18:42.213Z,100038.23
2022-09-05T04:21:32.134Z,100043.81
2022-09-05T04:24:41.272Z,100041.98
2022-09-05T04:27:56.016Z,100045.56
2022-09-05T04:30:46.227Z,100053.25
2022-09-05T04:34:02.426Z,100053.23
2022-09-05T04:37:01.776Z,100056.92
2022-09-05T04:39:47.755Z,100062.36
2022-09-05T04:42:37.729Z,100066.50
2022-09-05T04:45:24.640Z,100066.98
2022-09-05T04:48:15.808Z,100062.98
2022-09-05T04:51:13.010Z,100064.89
2022-09-05T04:54:30.019Z,100065.59
2022-09-05T04:57:38.394Z,100070.56
2022-09-05T05:06:01.810Z,100072.77
2022-09-05T05:06:12.918Z,100077.03
2022-09-05T05:07:59.478Z,100078.36
2022-09-05T05:17:54.142Z,100082.02
2022-09-05T05:18:14.369Z,100084.57
2022-09-05T05:18:38.751Z,100088.17
2022-09-05T05:21:12.535Z,100088.01
2022-09-05T05:24:01.571Z,100089.78
2022-09-05T05:27:06.383Z,100090.43
2022-09-05T05:29:58.284Z,100090.61
2022-09-05T05:32:51.952Z,100088.30
2022-09-05T05:35:48.158Z,100090.95
2022-09-05T05:38:50.891Z,100087.59
2022-09-05T05:41:45.090Z,100085.82
2022-09-05T05:44:34.970Z,100086.19
2022-09-05T05:47:32.287Z,100090.43
2022-09-05T05:50:25.749Z,100088.73
2022-09-05T05:53:31.961Z,100088.49
2022-09-05T05:56:31.450Z,100092.89
2022-09-05T05:59:24.942Z,100089.95
2022-09-05T06:02:20.238Z,100089.86
2022-09-05T06:05:27.861Z,100095.14
2022-09-05T06:11:18.079Z,100097.39
2022-09-05T06:14:57.994Z,100097.34
2022-09-05T06:15:36.151Z,100105.02
2022-09-05T06:18:50.553Z,100101.65
2022-09-05T06:23:36.676Z,100103.20
2022-09-05T06:26:55.733Z,100106.20
2022-09-05T06:30:17.409Z,100114.06
2022-09-05T06:33:03.245Z,100113.92
2022-09-05T06:36:04.524Z,100116.16
2022-09-05T06:39:11.643Z,100120.27
2022-09-05T06:42:30.585Z,100120.45
2022-09-05T06:46:07.483Z,100124.22
2022-09-05T06:49:29.811Z,100127.05
2022-09-05T06:53:20.141Z,100123.19
2022-09-05T06:56:29.911Z,100126.95
2022-09-05T06:59:38.090Z,100125.92
2022-09-05T07:02:58.822Z,100131.08
2022-09-05T07:05:45.528Z,100134.29
2022-09-05T07:08:54.191Z,100131.70
2022-09-05T07:12:18.598Z,100134.59
2022-09-05T07:15:29.485Z,100136.44
2022-09-05T07:19:06.363Z,100136.56
2022-09-05T07:22:47.925Z,100134.92
2022-09-05T07:25:37.322Z,100130.19
2022-09-05T07:28:28.681Z,100131.02
2022-09-05T07:31:37.385Z,100131.45
2022-09-05T07:34:33.425Z,100130.04
2022-09-05T07:37:25.881Z,100127.02
2022-09-05T07:40:24.715Z,100131.99
2022-09-05T07:43:19.329Z,100133.06
2022-09-05T07:46:11.784Z,100133.19
2022-09-05T07:49:14.747Z,100129.24
2022-09-05T07:56:46.628Z,100127.42
2022-09-05T07:56:58.646Z,100129.00
2022-09-05T07:58:50.061Z,100128.28
2022-09-05T08:01:41.390Z,100129.14
2022-09-05T08:04:35.972Z,100125.69
2022-09-05T08:07:48.309Z,100123.02
2022-09-05T08:11:23.429Z,100120.34
2022-09-05T08:14:45.234Z,100120.46
2022-09-05T08:17:35.728Z,100122.31
2022-09-05T08:20:32.286Z,100121.44
2022-09-05T08:23:31.025Z,100123.57
2022-09-05T08:26:33.188Z,100125.41
2022-09-05T08:29:40.614Z,100128.36
2022-09-05T08:33:11.064Z,100124.77
2022-09-05T08:36:31.882Z,100122.34
2022-09-05T08:39:29.939Z,100118.36
2022-09-05T08:46:37.717Z,100116.42
2022-09-05T08:46:45.760Z,100107.52
2022-09-05T08:49:36.788Z,100104.71
2022-09-05T08:52:52.191Z,100102.29
2022-09-05T08:55:44.076Z,100096.50
2022-09-05T08:59:27.948Z,100096.20
2022-09-05T09:02:46.729Z,100092.47
2022-09-05T09:06:12.945Z,100089.83
2022-09-05T09:08:46.245Z,100091.13
2022-09-05T09:11:36.610Z,100090.00
2022-09-05T09:14:52.931Z,100082.80
2022-09-05T09:17:46.885Z,100080.73
2022-09-05T09:20:56.932Z,100083.67
2022-09-05T09:24:01.816Z,100080.61
2022-09-05T09:27:03.127Z,100086.08
2022-09-05T09:29:52.040Z,100076.58
2022-09-05T09:32:47.043Z,100074.27
2022-09-05T09:35:54.542Z,100076.66
2022-09-05T09:38:52.121Z,100072.73
2022-09-05T09:42:07.122Z,100073.44
2022-09-05T09:45:22.750Z,100069.07
2022-09-05T09:48:53.400Z,100070.69
2022-09-05T09:52:21.212Z,100066.73
2022-09-05T09:55:32.817Z,100063.41
2022-09-05T09:58:32.425Z,100063.23
2022-09-05T10:01:40.825Z,100060.85
2022-09-05T10:10:39.642Z,100057.31
2022-09-05T10:10:56.799Z,100054.95
2022-09-05T10:12:06.751Z,100052.72
2022-09-05T10:15:01.902Z,100050.23
2022-09-05T10:18:35.759Z,100054.11
2022-09-05T10:22:34.235Z,100053.55
2022-09-05T10:25:19.678Z,100053.63
2022-09-05T10:28:34.349Z,100053.56
2022-09-05T10:33:10.489Z,100044.25
2022-09-05T10:35:23.354Z,100038.29
2022-09-05T10:38:35.462Z,100047.88
2022-09-05T10:41:32.318Z,100047.69
2022-09-05T10:44:40.803Z,100048.30
2022-09-05T10:47:49.422Z,100047.45
2022-09-05T10:50:52.838Z,100044.71
2022-09-05T10:54:17.638Z,100048.05
2022-09-05T10:57:15.389Z,100042.13
2022-09-05T11:02:30.288Z,100041.34
2022-09-05T11:03:52.369Z,100038.30
2022-09-05T11:07:17.023Z,100041.49
2022-09-05T11:10:16.202Z,100035.74
2022-09-05T11:13:33.572Z,100034.66
2022-09-05T11:17:02.577Z,100031.77
2022-09-05T11:20:04.826Z,100031.98
2022-09-05T11:23:03.626Z,100023.86
2022-09-05T11:26:02.261Z,100015.61
2022-09-05T11:29:01.057Z,100012.95
2022-09-05T11:32:05.800Z,100013.36
2022-09-05T11:39:45.692Z,100012.98
2022-09-05T11:40:03.789Z,100015.53
2022-09-05T11:42:25.759Z,100017.21
2022-09-05T11:45:21.266Z,100016.98
2022-09-05T11:48:26.767Z,100009.79
2022-09-05T11:51:48.526Z,100010.90
2022-09-05T11:55:02.746Z,100009.38
2022-09-05T11:58:44.002Z,100010.02
2022-09-05T12:01:41.808Z,100007.14
2022-09-05T12:05:48.992Z,100002.34
2022-09-05T12:08:18.313Z,99994.61
2022-09-05T12:11:27.163Z,99984.88
2022-09-05T12:14:29.132Z,99981.30
2022-09-05T12:17:38.752Z,99976.08
2022-09-05T12:20:43.307Z,99974.13
2022-09-05T12:23:56.626Z,99972.27
2022-09-05T12:27:43.062Z,99965.91
2022-09-05T12:30:09.976Z,99971.78
2022-09-05T12:40:53.655Z,99965.42
2022-09-05T12:41:32.878Z,99967.20
2022-09-05T12:42:08.242Z,99967.47
2022-09-05T12:44:00.687Z,99968.98
2022-09-05T12:46:33.521Z,99965.86
2022-09-05T12:49:37.298Z,99965.12
2022-09-05T12:52:34.093Z,99963.22
2022-09-05T12:55:31.122Z,99962.46
2022-09-05T13:02:56.590Z,99959.24
2022-09-05T13:03:13.989Z,99957.73
2022-09-05T13:05:02.354Z,99954.72
2022-09-05T13:07:58.457Z,99954.05
2022-09-05T13:14:56.694Z,99949.89
2022-09-05T13:14:57.074Z,99954.65
2022-09-05T13:17:14.374Z,99955.84
2022-09-05T13:20:01.056Z,99952.69
2022-09-05T13:22:50.760Z,99953.70
2022-09-05T13:25:41.133Z,99951.77
2022-09-05T13:28:37.545Z,99953.08
2022-09-05T13:37:58.308Z,99954.39
2022-09-05T13:38:09.898Z,99950.10
2022-09-05T13:38:47.873Z,99948.29
2022-09-05T13:41:29.459Z,99949.06
2022-09-05T13:44:27.571Z,99946.10
2022-09-05T13:47:37.577Z,99942.27
2022-09-05T13:50:36.225Z,99938.67
2022-09-05T13:53:36.789Z,99941.16
2022-09-05T13:56:30.877Z,99937.06
2022-09-05T13:59:21.673Z,99937.45
2022-09-05T14:02:27.797Z,99941.25
2022-09-05T14:05:37.654Z,99944.46
2022-09-05T14:12:25.693Z,99934.52
2022-09-05T14:15:14.070Z,99936.55
2022-09-05T14:18:20.755Z,99939.31
2022-09-05T14:21:19.095Z,99937.02
2022-09-05T14:24:28.171Z,99936.60
2022-09-05T14:27:31.969Z,99932.73
2022-09-05T14:35:15.019Z,99930.93
2022-09-05T14:37:42.985Z,99926.15
2022-09-05T14:37:50.881Z,99926.55
2022-09-05T14:40:30.253Z,99925.05
2022-09-05T14:43:08.277Z,99923.42
2022-09-05T14:45:37.342Z,99924.02
2022-09-05T14:48:39.359Z,99921.92
2022-09-05T14:51:31.714Z,99914.54
2022-09-05T14:54:05.006Z,99913.01
2022-09-05T14:58:26.402Z,99909.55
2022-09-05T15:02:50.649Z,99909.49
2022-09-05T15:02:52.714Z,99910.41
2022-09-05T15:05:28.106Z,99910.35
2022-09-05T15:08:18.257Z,99905.18
2022-09-05T15:12:22.073Z,99904.60
2022-09-05T15:14:08.422Z,99908.58
2022-09-05T15:16:43.813Z,99904.91
2022-09-05T15:19:34.038Z,99897.86
2022-09-05T15:22:43.189Z,99895.00
2022-09-05T15:25:21.739Z,99899.94
2022-09-05T15:27:53.767Z,99902.67
2022-09-05T15:30:35.809Z,99904.72
2022-09-05T15:33:14.656Z,99902.23
2022-09-05T15:35:45.808Z,99900.88
2022-09-05T15:38:27.679Z,99901.22
2022-09-05T15:41:20.737Z,99901.81
2022-09-05T15:44:01.646Z,99899.23
2022-09-05T15:47:17.385Z,99897.70
2022-09-05T15:51:13.953Z,99899.02
2022-09-05T15:53:42.808Z,99896.90
2022-09-05T15:56:13.475Z,99897.86
2022-09-05T15:58:56.635Z,99897.44
2022-09-05T16:02:00.497Z,99895.12
2022-09-05T16:10:27.276Z,99895.85
2022-09-05T16:10:46.663Z,99889.05
2022-09-05T16:11:11.146Z,99887.83
2022-09-05T16:13:52.103Z,99886.80
2022-09-05T16:21:52.676Z,99881.98
2022-09-05T16:23:27.781Z,99881.71
2022-09-05T16:23:34.528Z,99872.34
2022-09-05T16:25:52.765Z,99875.77
2022-09-05T16:28:28.882Z,99871.73
2022-09-05T16:31:04.282Z,99869.56
2022-09-05T16:33:34.029Z,99867.36
2022-09-05T16:36:16.412Z,99865.83
2022-09-05T16:39:36.347Z,99873.08
2022-09-05T16:42:16.614Z,99873.75
2022-09-05T16:45:01.487Z,99876.72
2022-09-05T16:47:39.226Z,99876.48
2022-09-05T16:50:34.871Z,99880.55
2022-09-05T16:53:09.964Z,99884.93
2022-09-05T16:55:59.682Z,99884.30
2022-09-05T16:58:39.296Z,99882.57
2022-09-05T17:01:41.417Z,99879.91
2022-09-05T17:04:28.902Z,99883.99
2022-09-05T17:07:06.274Z,99884.13
2022-09-05T17:09:37.258Z,99886.10
2022-09-05T17:12:57.531Z,99887.36
2022-09-05T17:15:35.377Z,99887.41
2022-09-05T17:18:24.300Z,99891.83
2022-09-05T17:21:05.242Z,99896.06
2022-09-05T17:29:18.520Z,99896.66
2022-09-05T17:29:24.033Z,99899.77
2022-09-05T17:31:14.563Z,99901.73
2022-09-05T17:32:40.072Z,99906.15
2022-09-05T17:35:17.320Z,99907.30
2022-09-05T17:38:14.676Z,99910.65
2022-09-05T17:40:59.630Z,99918.84
2022-09-05T17:43:35.532Z,99917.88
2022-09-05T17:46:31.724Z,99919.09
2022-09-05T17:49:19.887Z,99923.39
2022-09-05T17:51:52.066Z,99924.11
2022-09-05T17:54:29.395Z,99924.73
2022-09-05T17:57:29.511Z,99928.75
2022-09-05T18:00:12.432Z,99932.15
2022-09-05T18:03:08.486Z,99934.37
2022-09-05T18:06:01.251Z,99938.22
2022-09-05T18:08:52.704Z,99942.16
2022-09-05T18:11:27.688Z,99945.13
2022-09-05T18:17:49.958Z,99947.00
2022-09-05T18:21:22.476Z,99950.79
2022-09-05T18:28:33.127Z,99956.98
2022-09-05T18:31:41.734Z,99955.38
2022-09-05T18:34:16.663Z,99958.23
2022-09-05T18:36:48.631Z,99956.36
2022-09-05T18:39:23.798Z,99960.77
2022-09-05T18:42:26.588Z,99960.63
2022-09-05T18:45:16.373Z,99965.02
2022-09-05T18:47:57.362Z,99961.80
2022-09-05T18:50:35.134Z,99964.75
2022-09-05T18:53:12.821Z,99970.24
2022-09-05T18:56:20.363Z,99973.19
2022-09-05T18:59:56.427Z,99973.42
2022-09-05T19:02:58.212Z,99975.48
2022-09-05T19:05:41.834Z,99975.75
2022-09-05T19:08:47.335Z,99975.56
2022-09-05T19:11:52.843Z,99973.45
2022-09-05T19:14:53.894Z,99976.94
2022-09-05T19:17:47.366Z,99973.45
2022-09-05T19:20:32.486Z,99966.14
2022-09-05T19:23:22.433Z,99966.02
2022-09-05T19:26:09.705Z,99963.23
2022-09-05T19:36:46.106Z,99960.73
2022-09-05T19:36:50.518Z,99963.77
2022-09-05T19:37:13.586Z,99961.66
2022-09-05T19:37:32.815Z,99960.77
2022-09-05T19:45:48.932Z,99959.24
2022-09-05T19:47:43.859Z,99959.93
2022-09-05T19:47:52.053Z,99960.39
2022-09-05T19:48:36.881Z,99954.96
2022-09-05T19:51:17.046Z,99950.58
2022-09-05T19:53:55.186Z,99949.64
2022-09-05T19:56:46.873Z,99943.78
2022-09-05T19:59:40.500Z,99944.30
2022-09-05T20:02:22.243Z,99947.21
2022-09-05T20:05:08.263Z,99941.79
2022-09-05T20:08:37.577Z,99943.63
2022-09-05T20:11:07.346Z,99944.23
2022-09-05T20:13:35.834Z,99942.98
2022-09-05T20:16:05.581Z,99945.33
2022-09-05T20:18:41.011Z,99941.63
2022-09-05T20:21:14.777Z,99945.34
2022-09-05T20:23:51.918Z,99934.90
2022-09-05T20:26:24.831Z,99928.45
2022-09-05T20:29:16.119Z,99926.57
2022-09-05T20:31:45.335Z,99928.83
2022-09-05T20:35:39.404Z,99926.59
2022-09-05T20:43:08.561Z,99926.79
2022-09-05T20:43:18.674Z,99927.67
2022-09-05T20:43:31.636Z,99926.73
2022-09-05T20:46:27.960Z,99926.92
2022-09-05T20:54:09.692Z,99929.98
2022-09-05T20:54:27.072Z,99931.52
2022-09-05T20:54:44.821Z,99934.33
2022-09-05T20:57:20.148Z,99939.30
2022-09-05T20:59:49.087Z,99939.05
2022-09-05T21:02:24.744Z,99937.70
2022-09-05T21:05:20.584Z,99940.57
2022-09-05T21:08:20.389Z,99938.45
2022-09-05T21:10:56.375Z,99938.73
2022-09-05T21:13:36.359Z,99938.67
2022-09-05T21:16:21.618Z,99936.62
2022-09-05T21:18:55.877Z,99936.89
2022-09-05T21:21:33.612Z,99942.73
2022-09-05T21:24:18.116Z,99943.94
2022-09-05T21:26:48.881Z,99945.73
2022-09-05T21:29:27.495Z,99946.23
2022-09-05T21:32:10.979Z,99944.81
2022-09-05T21:34:52.285Z,99949.06
2022-09-05T21:37:21.762Z,99946.92
2022-09-05T21:39:58.319Z,99944.02
2022-09-05T21:44:46.764Z,99941.32
2022-09-05T21:47:38.027Z,99939.34
2022-09-05T21:48:15.590Z,99939.98
2022-09-05T21:50:45.858Z,99941.92
2022-09-05T21:56:26.906Z,99940.52
2022-09-05T21:59:20.588Z,99943.91
2022-09-05T21:59:25.436Z,99940.54
2022-09-05T22:02:05.483Z,99941.95
2022-09-05T22:04:41.244Z,99950.34
2022-09-05T22:07:21.711Z,99949.98
2022-09-05T22:10:04.370Z,99950.48
2022-09-05T22:12:39.002Z,99944.22
2022-09-05T22:15:27.368Z,99944.88
2022-09-05T22:18:17.036Z,99943.90
2022-09-05T22:20:53.528Z,99943.76
2022-09-05T22:23:53.743Z,99945.98
2022-09-05T22:26:22.070Z,99945.16
2022-09-05T22:28:51.310Z,99946.84
2022-09-05T22:31:20.730Z,99942.20
2022-09-05T22:33:51.081Z,99946.65
2022-09-05T22:36:20.028Z,99946.50
2022-09-05T22:38:48.360Z,99948.33
2022-09-05T22:41:17.156Z,99949.33
2022-09-05T22:43:46.553Z,99950.66
2022-09-05T22:46:14.992Z,99952.83
2022-09-05T22:48:43.566Z,99948.02
2022-09-05T22:51:12.339Z,99945.31
2022-09-05T22:53:40.619Z,99943.09
2022-09-05T22:56:11.775Z,99942.42
2022-09-05T22:58:45.205Z,99947.19
2022-09-05T23:01:14.087Z,99942.10
2022-09-05T23:03:42.507Z,99945.70
2022-09-05T23:06:10.933Z,99940.85
2022-09-05T23:08:39.895Z,99939.73
2022-09-05T23:11:10.625Z,99937.17
2022-09-05T23:13:39.549Z,99941.68
2022-09-05T23:16:08.017Z,99938.67
2022-09-05T23:18:36.716Z,99936.82
2022-09-05T23:21:07.478Z,99933.38
2022-09-05T23:23:37.262Z,99928.38
2022-09-05T23:26:09.685Z,99922.21
2022-09-05T23:28:43.049Z,99918.89
2022-09-05T23:31:12.845Z,99914.30
2022-09-05T23:33:42.059Z,99908.23
2022-09-05T23:36:13.926Z,99901.05
2022-09-05T23:38:43.534Z,99897.28
2022-09-05T23:41:14.547Z,99893.30
2022-09-05T23:43:42.899Z,99889.40
2022-09-05T23:46:11.917Z,99884.52
2022-09-05T23:48:40.575Z,99883.44
2022-09-05T23:51:11.847Z,99885.22
2022-09-05T23:53:40.548Z,99883.92
2022-09-05T23:56:10.774Z,99884.48
2022-09-05T23:58:39.167Z,99888.67
